Time;durP1;ratioP1;P1;durP2;ratioP2;P2;SDS_P1;SDS_P2;PMS_P1;PMS_P2;Temp;Humidity;BMP_temperature;BMP_pressure;BME280_temperature;BME280_humidity;BME280_pressure;Samples;Min_cycle;Max_cycle;Signal;HPM_P1;HPM_P2
2022/05/19 00:02:15;;;;;;;3.95;3.30;;;17.90;60.50;;;;;;5051875;28;20040;-66
2022/05/19 00:04:41;;;;;;;4.57;3.30;;;17.90;59.80;;;;;;5048663;28;20643;-66
2022/05/19 00:07:08;;;;;;;3.17;2.72;;;17.70;60.00;;;;;;5049084;28;20033;-66
2022/05/19 00:09:34;;;;;;;3.08;2.80;;;17.60;60.30;;;;;;5049644;28;20115;-66
2022/05/19 00:12:03;;;;;;;4.47;3.05;;;17.50;60.60;;;;;;5051436;28;20136;-66
2022/05/19 00:14:29;;;;;;;3.40;3.08;;;17.40;61.20;;;;;;5051706;28;20037;-66
2022/05/19 00:16:57;;;;;;;3.35;3.05;;;17.30;61.00;;;;;;5055518;28;20590;-65
2022/05/19 00:19:23;;;;;;;4.25;3.05;;;17.20;61.30;;;;;;5053280;28;20044;-65
2022/05/19 00:21:49;;;;;;;3.22;2.70;;;17.20;61.50;;;;;;5054102;28;20091;-65
2022/05/19 00:24:15;;;;;;;3.92;3.00;;;17.20;61.50;;;;;;5056279;28;20060;-65
2022/05/19 00:26:41;;;;;;;2.47;2.35;;;17.20;61.70;;;;;;5052295;28;20033;-66
2022/05/19 00:29:07;;;;;;;3.42;2.72;;;17.10;61.50;;;;;;5052321;28;20506;-66
2022/05/19 00:31:33;;;;;;;4.25;3.00;;;17.10;61.40;;;;;;5054895;28;20037;-65
2022/05/19 00:34:00;;;;;;;2.97;2.67;;;17.10;61.50;;;;;;5052916;28;20078;-66
2022/05/19 00:36:26;;;;;;;3.50;3.10;;;17.10;61.50;;;;;;5050705;28;20049;-66
2022/05/19 00:38:52;;;;;;;3.20;2.90;;;17.20;61.50;;;;;;5053751;28;20501;-66
2022/05/19 00:41:18;;;;;;;3.85;2.83;;;17.10;61.30;;;;;;5054104;28;20029;-66
2022/05/19 00:43:55;;;;;;;3.30;2.83;;;17.20;61.30;;;;;;5055675;28;20435;-66
2022/05/19 00:46:54;;;;;;;3.08;2.55;;;17.10;61.50;;;;;;5052130;28;20079;-65
2022/05/19 00:49:23;;;;;;;2.95;2.70;;;17.20;62.30;;;;;;5052631;28;20514;-65
2022/05/19 00:51:55;;;;;;;4.53;2.85;;;17.20;61.20;;;;;;5055222;28;20047;-66
2022/05/19 00:54:26;;;;;;;4.10;2.78;;;17.20;61.50;;;;;;5051344;28;20037;-65
2022/05/19 00:57:03;;;;;;;3.22;2.53;;;17.20;61.50;;;;;;5054965;28;20036;-65
2022/05/19 00:59:40;;;;;;;4.07;3.03;;;17.20;61.60;;;;;;5053541;28;20029;-66
2022/05/19 01:02:09;;;;;;;3.97;2.75;;;17.20;61.30;;;;;;5055645;28;20037;-65
2022/05/19 01:04:51;;;;;;;2.78;2.58;;;17.20;61.30;;;;;;5052935;28;20124;-66
2022/05/19 01:07:40;;;;;;;5.10;3.03;;;17.20;61.80;;;;;;5052651;28;20033;-66
2022/05/19 01:10:06;;;;;;;2.85;2.58;;;17.20;61.50;;;;;;5050267;28;20029;-66
2022/05/19 01:12:34;;;;;;;3.03;2.75;;;17.20;61.40;;;;;;5046503;28;20546;-65
2022/05/19 01:15:02;;;;;;;3.10;2.75;;;17.20;61.40;;;;;;5047499;28;20049;-66
2022/05/19 01:17:28;;;;;;;3.15;2.65;;;17.20;61.30;;;;;;5047773;28;20028;-66
2022/05/19 01:20:02;;;;;;;3.45;3.15;;;17.10;61.50;;;;;;5052250;28;20444;-66
2022/05/19 01:22:49;;;;;;;3.40;2.90;;;17.10;61.90;;;;;;5047179;28;20492;-65
2022/05/19 01:25:21;;;;;;;5.00;2.97;;;17.10;62.20;;;;;;5049214;28;20064;-65
2022/05/19 01:27:47;;;;;;;3.58;3.00;;;17.00;61.80;;;;;;5047511;28;20086;-66
2022/05/19 01:30:12;;;;;;;3.42;3.00;;;17.00;61.40;;;;;;5048334;28;20040;-66
2022/05/19 01:32:38;;;;;;;3.83;3.13;;;17.00;61.50;;;;;;5049085;28;20071;-66
2022/05/19 01:35:05;;;;;;;4.47;3.25;;;17.00;61.50;;;;;;5050533;28;20029;-66
2022/05/19 01:37:30;;;;;;;5.47;3.20;;;17.00;61.70;;;;;;5047958;28;20349;-66
2022/05/19 01:40:29;;;;;;;3.53;2.90;;;17.00;61.70;;;;;;5052171;28;20119;-65
2022/05/19 01:43:09;;;;;;;3.47;3.17;;;17.00;62.60;;;;;;5050989;28;20453;-66
2022/05/19 01:45:43;;;;;;;3.53;3.25;;;17.00;62.30;;;;;;5048428;28;20032;-67
2022/05/19 01:48:23;;;;;;;3.53;3.22;;;17.00;61.90;;;;;;5048787;28;20064;-66
2022/05/19 01:51:12;;;;;;;3.80;3.00;;;16.90;62.20;;;;;;5050077;28;20039;-66
2022/05/19 01:54:03;;;;;;;9.80;3.10;;;16.90;62.40;;;;;;5047798;28;20044;-64
2022/05/19 01:56:54;;;;;;;3.22;2.95;;;16.90;62.70;;;;;;5047649;28;20459;-66
2022/05/19 01:59:33;;;;;;;5.80;3.13;;;16.80;62.70;;;;;;5047239;28;20031;-65
2022/05/19 02:02:24;;;;;;;4.18;3.30;;;16.70;62.60;;;;;;5047541;28;20543;-66
2022/05/19 02:04:49;;;;;;;5.60;2.95;;;16.70;62.90;;;;;;5050862;28;20116;-66
2022/05/19 02:07:17;;;;;;;3.20;2.95;;;16.60;62.00;;;;;;5050016;28;20488;-66
2022/05/19 02:09:53;;;;;;;3.83;3.17;;;16.60;62.20;;;;;;5048313;28;20037;-66
2022/05/19 02:12:21;;;;;;;3.13;2.83;;;16.60;62.60;;;;;;5043203;28;20162;-66
2022/05/19 02:14:52;;;;;;;4.30;3.15;;;16.60;62.40;;;;;;5045120;28;20033;-65
2022/05/19 02:17:21;;;;;;;3.95;3.10;;;16.60;62.60;;;;;;5049677;28;20047;-66
2022/05/19 02:19:54;;;;;;;3.60;3.10;;;16.60;62.70;;;;;;5045702;28;20435;-66
2022/05/19 02:22:23;;;;;;;4.50;3.25;;;16.60;63.00;;;;;;5049967;28;20098;-66
2022/05/19 02:25:00;;;;;;;3.78;3.05;;;16.50;62.70;;;;;;5046439;28;20474;-66
2022/05/19 02:27:45;;;;;;;3.28;2.95;;;16.50;63.10;;;;;;5049877;28;20032;-65
2022/05/19 02:30:16;;;;;;;3.45;3.15;;;16.50;63.90;;;;;;5048835;28;20028;-66
2022/05/19 02:32:42;;;;;;;3.80;3.25;;;16.50;63.10;;;;;;5046977;28;20037;-66
2022/05/19 02:35:08;;;;;;;5.60;3.40;;;16.40;63.10;;;;;;5048485;28;20032;-66
2022/05/19 02:37:34;;;;;;;4.25;3.10;;;16.40;63.00;;;;;;5049444;28;20110;-65
2022/05/19 02:40:00;;;;;;;3.40;3.10;;;16.40;63.10;;;;;;5044332;28;20531;-66
2022/05/19 02:42:26;;;;;;;3.30;3.03;;;16.40;63.10;;;;;;5048007;28;20045;-64
2022/05/19 02:44:51;;;;;;;5.22;3.33;;;16.40;63.00;;;;;;5046813;28;20402;-65
2022/05/19 02:47:17;;;;;;;3.45;3.17;;;16.40;63.10;;;;;;5046377;28;20045;-65
2022/05/19 02:49:43;;;;;;;3.40;3.05;;;16.40;63.30;;;;;;5047170;28;20602;-66
2022/05/19 02:52:08;;;;;;;5.18;3.40;;;16.40;63.20;;;;;;5049297;28;20037;-66
2022/05/19 02:54:35;;;;;;;3.58;3.28;;;16.40;63.10;;;;;;5046153;28;20033;-64
2022/05/19 02:57:00;;;;;;;3.78;3.22;;;16.40;63.40;;;;;;5047260;28;20037;-63
2022/05/19 02:59:26;;;;;;;4.30;3.13;;;16.30;63.60;;;;;;5048623;28;20985;-66
2022/05/19 03:01:52;;;;;;;3.33;3.00;;;16.30;63.60;;;;;;5051020;28;20052;-66
2022/05/19 03:04:17;;;;;;;4.05;3.42;;;16.20;63.60;;;;;;5050270;28;20152;-65
2022/05/19 03:06:43;;;;;;;4.05;3.20;;;16.10;63.70;;;;;;5050796;28;20041;-66
2022/05/19 03:09:09;;;;;;;3.55;3.28;;;16.10;64.10;;;;;;5055225;28;20033;-66
2022/05/19 03:11:35;;;;;;;4.22;3.28;;;16.00;64.30;;;;;;5055621;28;20466;-66
2022/05/19 03:14:01;;;;;;;3.63;3.28;;;15.90;64.60;;;;;;5056744;28;20472;-66
2022/05/19 03:16:27;;;;;;;3.97;3.58;;;15.80;64.80;;;;;;5056842;28;20438;-64
2022/05/19 03:18:53;;;;;;;4.20;3.30;;;15.70;65.00;;;;;;5056194;28;20025;-66
2022/05/19 03:21:18;;;;;;;3.65;3.35;;;15.60;65.30;;;;;;5056998;28;20039;-66
2022/05/19 03:23:44;;;;;;;4.30;3.60;;;15.50;65.60;;;;;;5051225;28;20037;-66
2022/05/19 03:26:10;;;;;;;4.68;3.85;;;15.40;65.90;;;;;;5050296;28;20036;-66
2022/05/19 03:28:36;;;;;;;4.80;3.33;;;15.30;66.00;;;;;;5050927;28;20522;-65
2022/05/19 03:31:02;;;;;;;3.97;3.60;;;15.20;66.40;;;;;;5052899;28;20096;-66
2022/05/19 03:33:28;;;;;;;3.83;3.38;;;15.20;66.70;;;;;;5049670;28;20029;-65
2022/05/19 03:36:01;;;;;;;4.40;4.00;;;15.10;66.90;;;;;;5049864;28;20041;-66
2022/05/19 03:38:28;;;;;;;5.25;3.78;;;15.10;67.90;;;;;;5051670;28;20029;-66
2022/05/19 03:40:53;;;;;;;5.05;3.95;;;15.10;67.30;;;;;;5049490;28;20036;-67
2022/05/19 03:43:20;;;;;;;4.68;3.90;;;15.00;67.40;;;;;;5051499;28;20455;-65
2022/05/19 03:45:46;;;;;;;5.00;4.10;;;15.00;67.60;;;;;;5050167;28;20037;-66
2022/05/19 03:48:11;;;;;;;9.43;4.00;;;14.90;67.60;;;;;;5053104;28;20037;-65
2022/05/19 03:50:38;;;;;;;5.18;4.18;;;14.90;67.80;;;;;;5050957;28;20041;-66
2022/05/19 03:53:04;;;;;;;4.28;3.88;;;14.90;68.00;;;;;;5052458;28;20059;-66
2022/05/19 03:55:30;;;;;;;5.28;4.00;;;14.90;68.00;;;;;;5051179;28;20503;-66
2022/05/19 03:57:56;;;;;;;4.20;3.80;;;14.90;68.20;;;;;;5053022;28;20504;-65
2022/05/19 04:00:22;;;;;;;4.35;3.97;;;14.90;68.40;;;;;;5056265;28;20567;-66
2022/05/19 04:02:48;;;;;;;5.80;4.18;;;14.80;68.30;;;;;;5050731;28;20128;-65
2022/05/19 04:05:14;;;;;;;4.32;3.92;;;14.80;68.60;;;;;;5050946;28;20106;-66
2022/05/19 04:07:41;;;;;;;5.65;3.95;;;14.80;68.60;;;;;;5052347;28;20043;-66
2022/05/19 04:10:08;;;;;;;4.80;4.05;;;14.80;68.60;;;;;;5052347;28;20039;-65
2022/05/19 04:12:35;;;;;;;5.32;4.13;;;14.80;68.70;;;;;;5045681;28;20531;-66
2022/05/19 04:15:01;;;;;;;4.45;4.10;;;14.80;69.00;;;;;;5048526;28;20036;-66
2022/05/19 04:17:26;;;;;;;5.30;4.80;;;14.80;69.00;;;;;;5051685;28;20649;-66
2022/05/19 04:19:52;;;;;;;4.85;4.35;;;14.90;68.90;;;;;;5052114;28;20044;-66
2022/05/19 04:22:18;;;;;;;4.65;4.18;;;14.90;68.90;;;;;;5049203;28;20902;-66
2022/05/19 04:24:43;;;;;;;7.00;4.45;;;14.90;69.00;;;;;;5051345;28;20116;-65
2022/05/19 04:27:11;;;;;;;9.52;4.78;;;14.90;69.10;;;;;;5053515;28;20044;-64
2022/05/19 04:29:37;;;;;;;6.15;4.80;;;15.00;69.20;;;;;;5047697;28;20550;-66
2022/05/19 04:32:03;;;;;;;5.28;4.20;;;15.00;69.30;;;;;;5048240;28;20045;-66
2022/05/19 04:34:29;;;;;;;5.78;4.32;;;15.00;69.20;;;;;;5055570;28;20321;-66
2022/05/19 04:36:55;;;;;;;4.65;4.25;;;15.00;69.20;;;;;;5055202;28;20044;-66
2022/05/19 04:39:21;;;;;;;5.32;4.32;;;15.00;69.20;;;;;;5054998;28;20496;-65
2022/05/19 04:41:47;;;;;;;7.82;4.63;;;15.00;69.40;;;;;;5055052;28;20544;-66
2022/05/19 04:44:12;;;;;;;4.57;4.18;;;15.00;69.70;;;;;;5051678;28;20060;-65
2022/05/19 04:46:38;;;;;;;6.38;4.57;;;15.00;69.90;;;;;;5050946;28;20348;-65
2022/05/19 04:49:04;;;;;;;10.00;4.40;;;15.10;70.00;;;;;;5052057;28;20566;-68
2022/05/19 04:51:29;;;;;;;5.93;4.25;;;15.10;69.90;;;;;;5053167;28;20403;-66
2022/05/19 04:53:55;;;;;;;4.25;3.85;;;15.10;69.70;;;;;;5053740;28;20036;-66
2022/05/19 04:56:21;;;;;;;5.78;4.45;;;15.10;70.00;;;;;;5054129;28;20028;-67
2022/05/19 04:58:46;;;;;;;6.05;4.65;;;15.20;70.20;;;;;;5052744;28;20024;-67
2022/05/19 05:01:12;;;;;;;5.00;4.20;;;15.10;70.00;;;;;;5054656;28;20033;-67
2022/05/19 05:03:38;;;;;;;5.13;4.28;;;15.20;70.00;;;;;;5053414;28;20047;-66
2022/05/19 05:06:03;;;;;;;4.80;4.40;;;15.20;70.10;;;;;;5053601;28;20041;-66
2022/05/19 05:08:29;;;;;;;4.97;4.15;;;15.30;70.20;;;;;;5057674;28;20036;-66
2022/05/19 05:10:54;;;;;;;5.90;4.50;;;15.30;70.20;;;;;;5055103;28;20404;-66
2022/05/19 05:13:20;;;;;;;4.45;4.10;;;15.40;70.40;;;;;;5049889;28;20500;-67
2022/05/19 05:15:46;;;;;;;5.25;4.72;;;15.40;70.50;;;;;;5053424;28;20032;-67
2022/05/19 05:18:12;;;;;;;5.40;4.90;;;15.50;70.30;;;;;;5052631;28;20133;-65
2022/05/19 05:20:41;;;;;;;5.43;4.63;;;15.50;70.00;;;;;;5052964;28;20040;-66
2022/05/19 05:23:07;;;;;;;7.32;4.68;;;15.60;70.00;;;;;;5051264;28;20818;-66
2022/05/19 05:25:32;;;;;;;7.57;4.72;;;15.70;70.60;;;;;;5054508;28;20032;-67
2022/05/19 05:27:58;;;;;;;5.50;4.63;;;15.70;69.30;;;;;;5056914;28;20550;-66
2022/05/19 05:30:24;;;;;;;4.88;4.28;;;15.80;69.30;;;;;;5054749;28;20347;-67
2022/05/19 05:32:50;;;;;;;5.15;4.15;;;15.90;69.20;;;;;;5054535;28;20228;-66
2022/05/19 05:35:16;;;;;;;5.10;4.60;;;15.90;69.10;;;;;;5053331;28;20033;-66
2022/05/19 05:37:42;;;;;;;6.88;4.97;;;16.00;69.00;;;;;;5053055;28;20047;-66
2022/05/19 05:40:10;;;;;;;5.15;4.47;;;16.10;68.90;;;;;;5050890;28;20064;-66
2022/05/19 05:42:36;;;;;;;5.30;4.80;;;16.20;68.80;;;;;;5052788;28;20183;-66
2022/05/19 05:45:04;;;;;;;5.20;4.70;;;16.30;68.50;;;;;;5052304;28;20124;-65
2022/05/19 05:47:29;;;;;;;9.23;5.47;;;16.40;68.50;;;;;;5052984;28;20115;-66
2022/05/19 05:49:55;;;;;;;6.32;4.82;;;16.50;68.20;;;;;;5051855;28;20111;-66
2022/05/19 05:52:21;;;;;;;5.05;4.53;;;16.60;68.10;;;;;;5052480;28;20029;-66
2022/05/19 05:54:47;;;;;;;6.18;4.63;;;16.60;68.90;;;;;;5050555;28;20067;-66
2022/05/19 05:57:14;;;;;;;9.05;4.82;;;16.70;68.10;;;;;;5054431;28;20052;-65
2022/05/19 05:59:40;;;;;;;7.05;4.57;;;16.80;68.10;;;;;;5053144;28;20029;-66
2022/05/19 06:02:07;;;;;;;5.25;4.72;;;16.90;68.00;;;;;;5051295;28;20029;-66
2022/05/19 06:04:33;;;;;;;5.78;4.63;;;16.90;68.50;;;;;;5051171;28;20504;-66
2022/05/19 06:06:59;;;;;;;6.75;4.95;;;17.00;67.70;;;;;;5054491;28;20078;-66
2022/05/19 06:09:24;;;;;;;6.13;4.88;;;17.00;67.60;;;;;;5050984;28;20036;-66
2022/05/19 06:11:51;;;;;;;5.45;4.60;;;17.10;67.40;;;;;;5047169;28;20503;-66
2022/05/19 06:14:17;;;;;;;5.60;4.40;;;17.20;67.00;;;;;;5052912;28;20442;-66
2022/05/19 06:16:44;;;;;;;5.53;4.40;;;17.30;66.70;;;;;;5052510;28;20041;-66
2022/05/19 06:19:10;;;;;;;5.00;4.28;;;17.30;66.20;;;;;;5052780;28;20146;-66
2022/05/19 06:21:39;;;;;;;4.88;4.45;;;17.40;66.30;;;;;;5053022;28;20039;-66
2022/05/19 06:24:09;;;;;;;6.35;4.47;;;17.40;65.90;;;;;;5053962;28;20033;-66
2022/05/19 06:26:39;;;;;;;4.78;4.25;;;17.50;65.50;;;;;;5051298;28;20112;-66
2022/05/19 06:29:09;;;;;;;5.80;4.30;;;17.50;65.50;;;;;;5051892;28;20037;-66
2022/05/19 06:31:35;;;;;;;5.25;4.32;;;17.60;65.60;;;;;;5052566;28;20077;-66
2022/05/19 06:34:01;;;;;;;8.32;4.88;;;17.60;65.70;;;;;;5054039;28;20524;-66
2022/05/19 06:36:27;;;;;;;6.72;4.40;;;17.70;65.70;;;;;;5055103;28;20037;-66
2022/05/19 06:38:53;;;;;;;5.07;4.13;;;17.80;65.50;;;;;;5056744;28;20044;-66
2022/05/19 06:44:04;;;;;;;8.00;4.63;;;17.90;65.40;;;;;;5057162;28;20048;-66
2022/05/19 06:46:29;;;;;;;6.93;4.57;;;18.00;65.30;;;;;;5054795;28;20120;-66
2022/05/19 06:48:55;;;;;;;9.70;4.75;;;18.00;65.30;;;;;;5057368;28;20109;-66
2022/05/19 06:51:21;;;;;;;8.93;4.80;;;18.10;65.20;;;;;;5056864;28;20519;-67
2022/05/19 06:53:46;;;;;;;12.85;5.18;;;18.20;65.20;;;;;;5055411;28;20072;-66
2022/05/19 06:56:12;;;;;;;7.30;5.28;;;18.30;65.60;;;;;;5054516;28;20527;-66
2022/05/19 06:58:38;;;;;;;7.75;4.90;;;18.40;65.80;;;;;;5055342;28;20567;-66
2022/05/19 07:01:04;;;;;;;10.25;5.25;;;18.50;65.30;;;;;;5057900;28;20651;-66
2022/05/19 07:03:30;;;;;;;9.88;4.80;;;18.50;65.30;;;;;;5055848;28;20225;-64
2022/05/19 07:05:56;;;;;;;11.55;5.10;;;18.60;65.00;;;;;;5054959;28;20063;-66
2022/05/19 07:08:21;;;;;;;9.73;4.68;;;18.60;64.80;;;;;;5056444;28;20053;-66
2022/05/19 07:10:47;;;;;;;7.22;4.40;;;18.70;64.90;;;;;;5053792;28;20087;-66
2022/05/19 07:13:12;;;;;;;8.80;4.88;;;18.80;65.50;;;;;;5057326;28;20032;-66
2022/05/19 07:15:39;;;;;;;7.35;4.18;;;18.90;64.60;;;;;;5056851;28;20761;-66
2022/05/19 07:18:05;;;;;;;5.72;4.32;;;18.90;64.30;;;;;;5057919;28;20029;-66
2022/05/19 07:20:49;;;;;;;8.95;4.25;;;19.00;64.10;;;;;;5054148;28;20051;-66
2022/05/19 07:23:28;;;;;;;9.27;4.22;;;19.10;64.30;;;;;;5057375;28;20032;-67
2022/05/19 07:25:54;;;;;;;8.43;4.22;;;19.20;64.00;;;;;;5054597;28;20036;-66
2022/05/19 07:28:21;;;;;;;11.27;4.35;;;19.30;64.00;;;;;;5055477;28;20040;-66
2022/05/19 07:30:47;;;;;;;7.63;4.05;;;19.40;64.10;;;;;;5058796;28;20085;-66
2022/05/19 07:33:14;;;;;;;7.82;4.43;;;19.50;64.00;;;;;;5056917;28;20024;-65
2022/05/19 07:35:41;;;;;;;8.93;4.30;;;19.60;64.40;;;;;;5054371;28;20386;-66
2022/05/19 07:38:07;;;;;;;9.65;4.22;;;19.70;64.30;;;;;;5054519;28;20412;-66
2022/05/19 07:40:32;;;;;;;7.57;4.32;;;19.80;64.50;;;;;;5054557;28;20032;-66
2022/05/19 07:43:35;;;;;;;8.93;4.38;;;19.90;64.20;;;;;;5057100;28;20037;-66
2022/05/19 07:45:44;;;;;;;12.75;3.92;;;20.00;63.90;;;;;;5055061;28;20049;-66
2022/05/19 07:48:10;;;;;;;8.65;4.15;;;20.10;63.70;;;;;;5055434;28;20373;-65
2022/05/19 07:50:35;;;;;;;6.53;4.10;;;20.20;63.40;;;;;;5051707;28;20036;-67
2022/05/19 07:53:01;;;;;;;10.75;4.07;;;20.40;63.30;;;;;;5054539;28;20476;-65
2022/05/19 07:55:27;;;;;;;9.10;3.90;;;20.50;63.20;;;;;;5052533;28;20029;-66
2022/05/19 07:57:52;;;;;;;5.82;3.80;;;20.60;62.90;;;;;;5053952;28;20196;-66
2022/05/19 08:00:18;;;;;;;11.27;4.07;;;20.70;62.90;;;;;;5057592;28;20021;-66
2022/05/19 08:02:44;;;;;;;5.78;4.07;;;20.80;62.70;;;;;;5050715;28;20119;-66
2022/05/19 08:05:10;;;;;;;6.18;3.83;;;20.90;62.80;;;;;;5055166;28;20190;-66
2022/05/19 08:07:35;;;;;;;6.57;3.80;;;21.00;62.70;;;;;;5055382;28;20033;-66
2022/05/19 08:15:35;;;;;;;4.03;3.60;;;21.40;62.80;;;;;;5054374;28;20055;-66
2022/05/19 08:18:06;;;;;;;5.70;3.30;;;21.50;62.70;;;;;;5055298;28;20032;-66
2022/05/19 08:20:33;;;;;;;4.25;3.42;;;21.70;63.10;;;;;;5054090;28;20119;-66
2022/05/19 08:22:59;;;;;;;4.65;3.25;;;21.80;63.50;;;;;;5054922;28;20039;-66
2022/05/19 08:25:26;;;;;;;4.15;2.85;;;21.90;62.50;;;;;;5054102;28;20429;-66
2022/05/19 08:27:53;;;;;;;6.68;3.10;;;22.00;62.40;;;;;;5052920;28;20052;-66
2022/05/19 08:30:19;;;;;;;4.20;2.85;;;22.20;61.90;;;;;;5055962;28;20041;-66
2022/05/19 08:32:45;;;;;;;5.57;2.83;;;22.30;61.60;;;;;;5054307;28;20048;-66
2022/05/19 08:35:11;;;;;;;2.88;2.60;;;22.50;60.80;;;;;;5053478;28;20029;-67
2022/05/19 08:37:37;;;;;;;3.95;2.50;;;22.60;60.90;;;;;;5053886;28;20040;-66
2022/05/19 08:40:04;;;;;;;7.65;2.90;;;22.80;60.10;;;;;;5054857;28;20038;-66
2022/05/19 08:42:34;;;;;;;10.15;2.35;;;23.00;60.00;;;;;;5053486;28;20040;-68
2022/05/19 08:45:04;;;;;;;4.18;2.50;;;23.10;59.80;;;;;;5051904;28;20398;-67
2022/05/19 08:47:34;;;;;;;3.53;2.42;;;23.30;59.70;;;;;;5056106;28;20052;-66
2022/05/19 08:50:04;;;;;;;3.13;2.83;;;23.40;59.30;;;;;;5054809;28;20111;-66
2022/05/19 08:52:51;;;;;;;3.78;2.75;;;23.60;58.70;;;;;;5052257;28;20048;-66
2022/05/19 08:55:18;;;;;;;3.67;2.53;;;23.80;58.70;;;;;;5059844;28;20161;-66
2022/05/19 08:57:54;;;;;;;2.97;2.55;;;24.00;58.90;;;;;;5053900;28;20514;-66
2022/05/19 09:00:27;;;;;;;4.18;2.80;;;24.10;58.50;;;;;;5055508;28;20036;-67
2022/05/19 09:02:56;;;;;;;4.13;2.90;;;24.30;58.00;;;;;;5053346;28;20037;-66
2022/05/19 09:05:41;;;;;;;4.00;2.15;;;24.40;57.80;;;;;;5053394;28;20040;-66
2022/05/19 09:08:13;;;;;;;4.53;2.50;;;24.60;57.90;;;;;;5055526;28;20029;-67
2022/05/19 09:10:39;;;;;;;3.17;2.63;;;24.80;57.70;;;;;;5054134;28;20036;-67
2022/05/19 09:13:23;;;;;;;2.83;2.28;;;25.00;57.30;;;;;;5051844;28;20032;-66
2022/05/19 09:15:49;;;;;;;4.88;2.58;;;25.20;56.70;;;;;;5055065;28;20041;-67
2022/05/19 09:18:17;;;;;;;4.85;2.30;;;25.30;56.70;;;;;;5055037;28;20032;-67
2022/05/19 09:20:54;;;;;;;6.10;2.97;;;25.40;56.40;;;;;;5051988;28;20107;-67
2022/05/19 09:23:21;;;;;;;3.08;2.55;;;25.60;55.40;;;;;;5054281;28;20032;-67
2022/05/19 09:25:56;;;;;;;5.55;2.55;;;25.70;55.70;;;;;;5052060;28;20119;-66
2022/05/19 09:28:22;;;;;;;3.90;2.10;;;25.80;55.50;;;;;;5053038;28;20075;-66
2022/05/19 09:30:54;;;;;;;4.20;2.58;;;26.00;55.90;;;;;;5052327;28;20555;-67
2022/05/19 09:33:33;;;;;;;4.18;2.38;;;26.10;56.00;;;;;;5056457;28;20107;-67
2022/05/19 09:36:00;;;;;;;4.18;2.25;;;26.30;55.80;;;;;;5054554;28;20393;-67
2022/05/19 09:38:35;;;;;;;4.75;2.22;;;26.40;55.90;;;;;;5053808;28;20037;-67
2022/05/19 09:41:15;;;;;;;8.18;3.20;;;26.50;56.00;;;;;;5054592;28;20037;-67
2022/05/19 09:43:51;;;;;;;5.07;2.70;;;26.70;56.10;;;;;;5054907;28;20356;-67
2022/05/19 09:46:16;;;;;;;2.63;2.42;;;26.80;55.10;;;;;;5051313;28;20403;-67
2022/05/19 09:49:04;;;;;;;9.13;2.50;;;26.90;54.90;;;;;;5053490;28;20040;-67
2022/05/19 09:51:42;;;;;;;2.78;2.38;;;27.10;54.40;;;;;;5052086;28;20435;-67
2022/05/19 09:54:13;;;;;;;3.53;2.35;;;27.20;54.50;;;;;;5053010;28;20499;-66
2022/05/19 09:56:45;;;;;;;4.15;2.20;;;27.30;54.10;;;;;;5053421;28;20037;-66
2022/05/19 09:59:36;;;;;;;4.22;2.60;;;27.40;53.50;;;;;;5055665;28;20029;-67
2022/05/19 10:02:27;;;;;;;4.55;2.42;;;27.50;53.70;;;;;;5049131;28;20029;-67
2022/05/19 10:04:57;;;;;;;2.90;2.40;;;27.70;53.00;;;;;;5053727;28;20036;-66
2022/05/19 10:07:27;;;;;;;4.57;2.55;;;27.70;53.00;;;;;;5053202;28;20113;-67
2022/05/19 10:09:56;;;;;;;2.78;2.55;;;27.90;53.50;;;;;;5052516;28;20512;-67
2022/05/19 10:12:31;;;;;;;5.30;2.80;;;27.90;53.50;;;;;;5053308;28;20389;-67
2022/05/19 10:15:08;;;;;;;4.55;2.42;;;28.10;53.30;;;;;;5052696;28;20091;-66
2022/05/19 10:18:15;;;;;;;2.72;2.50;;;28.10;53.40;;;;;;5052641;28;20033;-67
2022/05/19 10:20:51;;;;;;;3.33;2.50;;;28.30;52.70;;;;;;5054689;28;20033;-67
2022/05/19 10:23:35;;;;;;;2.50;2.22;;;28.40;52.80;;;;;;5054250;28;20438;-67
2022/05/19 10:26:07;;;;;;;6.38;2.33;;;28.50;53.00;;;;;;5053842;28;20573;-67
2022/05/19 10:31:38;;;;;;;5.15;2.38;;;28.60;52.50;;;;;;5053034;28;20040;-66
2022/05/19 10:34:25;;;;;;;3.03;2.15;;;28.70;52.40;;;;;;5052770;28;20025;-67
2022/05/19 10:37:50;;;;;;;1.88;1.77;;;28.80;50.60;;;;;;5055132;28;20653;-67
2022/05/19 10:40:38;;;;;;;2.80;1.88;;;28.80;49.20;;;;;;5002998;28;20100;-67
2022/05/19 10:43:35;;;;;;;2.83;2.08;;;28.90;49.70;;;;;;5047415;28;20033;-67
2022/05/19 10:46:05;;;;;;;4.22;2.10;;;29.00;48.90;;;;;;5052329;28;20033;-67
2022/05/19 10:48:51;;;;;;;4.20;1.98;;;29.10;49.10;;;;;;5052118;28;20032;-67
2022/05/19 10:51:23;;;;;;;4.82;2.10;;;29.10;47.00;;;;;;5054148;28;20107;-67
2022/05/19 10:53:52;;;;;;;4.32;1.92;;;29.20;48.10;;;;;;5049979;28;20094;-67
2022/05/19 10:56:25;;;;;;;3.47;2.25;;;29.20;47.50;;;;;;5050390;28;20032;-67
2022/05/19 10:59:12;;;;;;;3.05;1.80;;;29.30;47.20;;;;;;5053226;28;20079;-67
2022/05/19 11:02:08;;;;;;;3.35;1.80;;;29.30;46.80;;;;;;5053044;28;20510;-67
2022/05/19 11:05:02;;;;;;;4.25;1.88;;;29.40;46.00;;;;;;5052100;28;20029;-66
2022/05/19 11:07:37;;;;;;;3.38;1.83;;;29.50;46.50;;;;;;5055609;28;20020;-67
2022/05/19 11:10:21;;;;;;;;;;;29.60;46.40;;;;;;5053868;28;20035;-66
2022/05/19 11:13:13;;;;;;;6.57;2.10;;;29.60;47.80;;;;;;5054792;28;19923;-66
2022/05/19 11:16:15;;;;;;;4.72;2.08;;;29.70;45.30;;;;;;5052266;28;20391;-67
2022/05/19 11:19:04;;;;;;;3.88;1.80;;;29.80;45.70;;;;;;5051315;28;20090;-67
2022/05/19 11:21:36;;;;;;;4.05;2.03;;;29.80;46.60;;;;;;5050197;28;20032;-67
2022/05/19 11:24:05;;;;;;;17.42;2.20;;;29.80;45.80;;;;;;5057912;28;20039;-67
2022/05/19 11:26:56;;;;;;;6.10;1.70;;;29.90;45.60;;;;;;5061305;28;20373;-67
2022/05/19 11:29:41;;;;;;;3.67;1.98;;;29.90;45.20;;;;;;5056551;28;20136;-66
2022/05/19 11:32:07;;;;;;;2.50;1.77;;;30.00;45.10;;;;;;5057103;28;20028;-67
2022/05/19 11:34:32;;;;;;;1.98;1.80;;;30.00;45.10;;;;;;5053798;28;20025;-67
2022/05/19 11:37:03;;;;;;;1.88;1.70;;;30.10;45.00;;;;;;5052897;28;20025;-67
2022/05/19 11:39:47;;;;;;;1.90;1.70;;;30.10;44.60;;;;;;5056106;28;20129;-67
2022/05/19 11:42:19;;;;;;;2.20;1.80;;;30.10;43.80;;;;;;5057610;28;20492;-67
2022/05/19 11:44:46;;;;;;;6.28;1.92;;;30.20;43.80;;;;;;5055357;28;20412;-67
2022/05/19 11:55:12;;;;;;;5.05;1.90;;;30.20;44.00;;;;;;5055675;28;20618;-67
2022/05/19 11:55:51;;;;;;;6.07;2.03;;;30.30;43.30;;;;;;5056221;28;20260;-67
2022/05/19 11:58:31;;;;;;;2.28;1.73;;;30.30;44.10;;;;;;5057662;28;20037;-66
2022/05/19 12:01:11;;;;;;;2.20;1.80;;;30.40;43.20;;;;;;5053942;28;20029;-67
2022/05/19 12:03:42;;;;;;;5.72;1.90;;;30.40;43.00;;;;;;5054736;28;20072;-67
2022/05/19 12:06:12;;;;;;;2.30;1.63;;;30.40;42.90;;;;;;5056292;28;20040;-67
2022/05/19 12:09:05;;;;;;;2.35;1.73;;;30.50;42.70;;;;;;5056592;28;20439;-67
2022/05/19 12:11:47;;;;;;;3.80;1.90;;;30.50;42.90;;;;;;5050722;28;20037;-67
2022/05/19 12:14:25;;;;;;;2.22;2.00;;;30.50;43.50;;;;;;5057921;28;20499;-67
2022/05/19 12:16:55;;;;;;;3.00;1.80;;;30.50;43.10;;;;;;5059055;28;20124;-67
2022/05/19 12:19:38;;;;;;;4.03;1.95;;;30.60;43.30;;;;;;5058638;28;20040;-67
2022/05/19 12:22:12;;;;;;;2.35;1.48;;;30.60;42.50;;;;;;5058769;28;20444;-66
2022/05/19 12:24:52;;;;;;;3.88;1.90;;;30.60;42.50;;;;;;5059021;28;20095;-67
2022/05/19 12:27:24;;;;;;;2.88;1.88;;;30.70;42.60;;;;;;5057680;28;20033;-67
2022/05/19 12:33:09;;;;;;;2.40;2.13;;;30.80;40.80;;;;;;5056165;28;20095;-67
2022/05/19 12:35:35;;;;;;;4.97;2.10;;;30.80;41.20;;;;;;5056902;28;20037;-67
2022/05/19 12:38:04;;;;;;;2.13;1.80;;;30.90;42.00;;;;;;5058223;28;20085;-67
2022/05/19 12:40:52;;;;;;;3.33;1.90;;;30.80;41.00;;;;;;5057171;28;20055;-67
2022/05/19 12:43:29;;;;;;;1.75;1.65;;;30.80;41.90;;;;;;5054856;28;20492;-67
2022/05/19 12:45:58;;;;;;;7.35;1.92;;;30.80;41.30;;;;;;5057926;28;20036;-67
2022/05/19 12:48:48;;;;;;;3.53;2.05;;;30.90;41.60;;;;;;5056279;28;20565;-67
2022/05/19 12:51:18;;;;;;;2.03;1.70;;;30.90;41.50;;;;;;5055754;28;20021;-67
2022/05/19 12:53:50;;;;;;;5.22;1.80;;;30.90;41.30;;;;;;5057582;28;20027;-67
2022/05/19 12:56:49;;;;;;;3.72;2.10;;;30.90;40.90;;;;;;5057604;28;20036;-67
2022/05/19 12:59:38;;;;;;;2.80;2.03;;;31.00;40.90;;;;;;5056664;28;20052;-67
2022/05/19 13:02:24;;;;;;;4.32;1.85;;;31.00;41.20;;;;;;5058346;28;20554;-67
2022/05/19 13:05:12;;;;;;;4.00;1.90;;;31.10;42.00;;;;;;5056603;28;20063;-67
2022/05/19 13:07:41;;;;;;;3.80;1.90;;;31.10;41.30;;;;;;5057937;28;20042;-67
2022/05/19 13:10:07;;;;;;;4.78;1.75;;;31.10;41.20;;;;;;5055801;28;20029;-67
2022/05/19 13:12:53;;;;;;;3.78;1.95;;;31.10;41.40;;;;;;5051134;28;20399;-67
2022/05/19 13:15:27;;;;;;;1.95;1.70;;;31.10;40.90;;;;;;5053996;28;20044;-68
2022/05/19 13:17:54;;;;;;;2.80;1.77;;;31.10;39.80;;;;;;5055471;28;20060;-67
2022/05/19 13:20:32;;;;;;;4.18;1.85;;;31.10;39.60;;;;;;5055561;28;20441;-67
2022/05/19 13:23:00;;;;;;;1.90;1.60;;;31.20;39.80;;;;;;5053956;28;20082;-67
2022/05/19 13:25:28;;;;;;;2.03;1.75;;;31.20;40.20;;;;;;5053752;28;20045;-67
2022/05/19 13:30:57;;;;;;;2.80;1.65;;;31.30;39.70;;;;;;5055294;28;20032;-67
2022/05/19 13:33:35;;;;;;;3.97;1.92;;;31.30;39.60;;;;;;5054267;28;20032;-67